Boortmeerbeek, Belgium
Current Conditions -  °F | °C
As of 4:50 PM on Friday 19 Dec 2014 (Local Time) from EBBR Reporting Station
Broken Clouds Broken Clouds  
Wind Chill: 42°   Ceiling: 3300
Heat Index: 46°   Visibility: 6mi
Dew Point: 39°   Wind: 8mph
Humidity: 76%   Direction: 300°WNW
Pressure: 30"   Gusts: NA
Location:  50.98°N, 4.57°E
Report Text: EBBR 191550Z 30007KT 9999 SCT022 BKN033 08/04 Q1016 NOSIG
Loading
Personal Weather Stations






























Interactive Weather Map New forecast layout! Learn more

10-Day Weather Forecast

Advertisements
Track Severe Weather on mobile